»·PEaware :: JUS326 KFAT-KSFO

JUS326 :: KFAT-KSFO

FLIGHT INFORMATION

Flight Status: Arrived
Operator:
USA Jet
More flights by this operator :: More flights under this callsign
Pilot: Erik S. (3779)
Aircraft: BOEING 737-300
(B733)
More flights by this aircraft type
Origin: KFAT Fresno Yosemite Intl
United States
Destination: KSFO San Francisco Intl
United States
More flights between these airports :: More routes between these airports
Route: +YOSE2 ALWYS CEDES ARCHI
File this flight plan on PilotEdge
Remarks:
Altitude:
(Current/Filed)
18,000ft
Speed:
(Current/Filed)
400kts
Departed: 23-Jan-18 10:08 AM
Arrived: 23-Jan-18 10:41 AM
Distance/Time
Traveled:
138nm/0:33
Distance/Time
To Go:
Arrived

Flight Plot

Page will automatically refresh every two minutes.

Flight plan parsing failed; only flown route is shown


Map Options




Map Legend


Flown Route
Filed Route
Departure Airport
Arrival Airport
Navaid (VOR, NDB)
Fix

Horizontal Profiles

Position Reports

Time Latitude Longitude Heading Altitude Ground
Speed
23-Jan-18 10:01 36.779506 -119.715512 305 341ft 0kts
23-Jan-18 10:02 36.779506 -119.715512 305 341ft 0kts
23-Jan-18 10:03 36.779506 -119.715512 305 341ft 0kts
23-Jan-18 10:04 36.779506 -119.715512 305 341ft 0kts
23-Jan-18 10:05 36.779506 -119.715512 305 341ft 0kts
23-Jan-18 10:06 36.779506 -119.715512 305 341ft 0kts
23-Jan-18 10:07 36.779506 -119.715512 305 341ft 0kts
23-Jan-18 10:08 36.779477 -119.715461 305 341ft 0kts
23-Jan-18 10:09 36.779182 -119.714891 296 341ft 0kts
23-Jan-18 10:10 36.779093 -119.714648 294 341ft 0kts
23-Jan-18 10:11 36.777434 -119.714874 126 341ft 17kts
23-Jan-18 10:12 36.773192 -119.707313 124 341ft 32kts
23-Jan-18 10:13 36.769767 -119.702911 213 341ft 0kts
23-Jan-18 10:14 36.774368 -119.713141 304 341ft 132kts
23-Jan-18 10:15 36.800955 -119.761765 304 2546ft 187kts
23-Jan-18 10:16 36.832768 -119.820858 304 4746ft 223kts
23-Jan-18 10:17 36.868993 -119.888694 304 6978ft 263kts
23-Jan-18 10:18 36.911198 -119.966962 304 9689ft 280kts
23-Jan-18 10:19 36.956995 -120.051302 304 10338ft 322kts
23-Jan-18 10:20 37.008294 -120.144900 304 12817ft 336kts
23-Jan-18 10:21 37.052946 -120.225135 304 14886ft 341kts
23-Jan-18 10:22 37.109025 -120.322110 316 17069ft 349kts
23-Jan-18 10:23 37.181931 -120.405479 314 18354ft 374kts
23-Jan-18 10:24 37.271875 -120.514670 314 18349ft 388kts
23-Jan-18 10:25 37.336408 -120.593548 314 18343ft 388kts
23-Jan-18 10:26 37.413465 -120.688013 314 18339ft 388kts
23-Jan-18 10:27 37.490539 -120.783020 314 18342ft 388kts
23-Jan-18 10:28 37.567258 -120.877862 314 18326ft 388kts
23-Jan-18 10:29 37.638716 -120.977988 291 18354ft 386kts
23-Jan-18 10:30 37.621183 -121.107266 253 18342ft 387kts
23-Jan-18 10:31 37.599998 -121.236836 260 16794ft 367kts
23-Jan-18 10:32 37.584324 -121.361063 261 14392ft 358kts
23-Jan-18 10:33 37.569391 -121.479815 260 12616ft 341kts
23-Jan-18 10:34 37.555048 -121.592218 261 11081ft 321kts
23-Jan-18 10:35 37.534815 -121.692101 253 10979ft 278kts
23-Jan-18 10:36 37.512408 -121.785493 254 10661ft 279kts
23-Jan-18 10:37 37.490141 -121.877816 252 8259ft 271kts
23-Jan-18 10:38 37.467785 -121.961961 252 7991ft 251kts
23-Jan-18 10:39 37.478554 -122.042881 298 6707ft 244kts
23-Jan-18 10:40 37.509435 -122.115901 298 4163ft 224kts
23-Jan-18 10:41 37.535233 -122.176826 298 3305ft 172kts
23-Jan-18 10:42 37.554906 -122.223466 298 2453ft 144kts
23-Jan-18 10:43 37.573479 -122.267552 298 1653ft 142kts
23-Jan-18 10:44 37.591860 -122.311240 298 886ft 141kts
23-Jan-18 10:45 37.610307 -122.355112 297 136ft 143kts
23-Jan-18 10:46 37.623881 -122.387378 298 20ft 47kts
23-Jan-18 10:47 37.626293 -122.390047 335 20ft 0kts
23-Jan-18 10:48 37.629276 -122.391659 337 20ft 27kts
23-Jan-18 10:49 37.634588 -122.390168 6 20ft 21kts
23-Jan-18 10:50 37.635043 -122.389966 25 20ft 0kts
23-Jan-18 10:51 37.635043 -122.389966 25 20ft 0kts
23-Jan-18 10:52 37.635043 -122.389966 25 20ft 0kts
23-Jan-18 10:53 37.635043 -122.389966 25 20ft 0kts
23-Jan-18 10:54 37.635043 -122.389966 25 20ft 0kts
23-Jan-18 10:55 37.635043 -122.389966 25 20ft 0kts
23-Jan-18 10:56 37.635043 -122.389966 25 20ft 0kts
23-Jan-18 10:57 37.635043 -122.389966 25 20ft 0kts
23-Jan-18 10:58 37.635043 -122.389966 25 20ft 0kts
23-Jan-18 10:59 37.635043 -122.389966 25 20ft 0kts
23-Jan-18 11:00 37.635043 -122.389966 25 20ft 0kts
23-Jan-18 11:01 37.635043 -122.389966 25 20ft 0kts

Navigation Log

Ident Type
Flight plan parsing failed, navigation log unavailable